Map

Track Data

SID SEASON NUMBER BASIN SUBBASIN NAME ISO_TIME NATURE LAT LON WMO_WIND WMO_PRES WMO_AGENCY TRACK_TYPE DIST2LAND LANDFALL IFLAG USA_AGENCY USA_ATCF_ID USA_LAT USA_LON USA_RECORD USA_STATUS USA_WIND USA_PRES USA_SSHS USA_R34_NE USA_R34_SE USA_R34_SW USA_R34_NW USA_R50_NE USA_R50_SE USA_R50_SW USA_R50_NW USA_R64_NE USA_R64_SE USA_R64_SW USA_R64_NW USA_POCI USA_ROCI USA_RMW USA_EYE TOKYO_LAT TOKYO_LON TOKYO_GRADE TOKYO_WIND TOKYO_PRES TOKYO_R50_DIR TOKYO_R50_LONG TOKYO_R50_SHORT TOKYO_R30_DIR TOKYO_R30_LONG TOKYO_R30_SHORT TOKYO_LAND CMA_LAT CMA_LON CMA_CAT CMA_WIND CMA_PRES HKO_LAT HKO_LON HKO_CAT HKO_WIND HKO_PRES NEWDELHI_LAT NEWDELHI_LON NEWDELHI_GRADE NEWDELHI_WIND NEWDELHI_PRES NEWDELHI_CI NEWDELHI_DP NEWDELHI_POCI REUNION_LAT REUNION_LON REUNION_TYPE REUNION_WIND REUNION_PRES REUNION_TNUM REUNION_CI REUNION_RMW REUNION_R34_NE REUNION_R34_SE REUNION_R34_SW REUNION_R34_NW REUNION_R50_NE REUNION_R50_SE REUNION_R50_SW REUNION_R50_NW REUNION_R64_NE REUNION_R64_SE REUNION_R64_SW REUNION_R64_NW BOM_LAT BOM_LON BOM_TYPE BOM_WIND BOM_PRES BOM_TNUM BOM_CI BOM_RMW BOM_R34_NE BOM_R34_SE BOM_R34_SW BOM_R34_NW BOM_R50_NE BOM_R50_SE BOM_R50_SW BOM_R50_NW BOM_R64_NE BOM_R64_SE BOM_R64_SW BOM_R64_NW BOM_ROCI BOM_POCI BOM_EYE BOM_POS_METHOD BOM_PRES_METHOD NADI_LAT NADI_LON NADI_CAT NADI_WIND NADI_PRES WELLINGTON_LAT WELLINGTON_LON WELLINGTON_WIND WELLINGTON_PRES DS824_LAT DS824_LON DS824_STAGE DS824_WIND DS824_PRES TD9636_LAT TD9636_LON TD9636_STAGE TD9636_WIND TD9636_PRES TD9635_LAT TD9635_LON TD9635_WIND TD9635_PRES TD9635_ROCI NEUMANN_LAT NEUMANN_LON NEUMANN_CLASS NEUMANN_WIND NEUMANN_PRES MLC_LAT MLC_LON MLC_CLASS MLC_WIND MLC_PRES USA_GUST BOM_GUST BOM_GUST_PER REUNION_GUST REUNION_GUST_PER USA_SEAHGT USA_SEARAD_NE USA_SEARAD_SE USA_SEARAD_SW USA_SEARAD_NW STORM_SPEED STORM_DIR
1860247N13298 1860 26 NA CS NOT_NAMED 1860-09-02 12:00:00 TS 12.5000 -62.3000 main 201 201 _____________O -1 12.5000 -62.3000 TD 30 9 324
1860247N13298 1860 26 NA CS NOT_NAMED 1860-09-02 15:00:00 TS 12.8501 -62.5598 main 246 246 _____________P -1 12.8501 -62.5598 TD 30 9 325
1860247N13298 1860 26 NA CS NOT_NAMED 1860-09-02 18:00:00 TS 13.2000 -62.8000 main 279 279 _____________O -1 13.2000 -62.8000 TD 30 8 328
1860247N13298 1860 26 NA CS NOT_NAMED 1860-09-02 21:00:00 TS 13.5500 -63.0076 main 313 313 _____________P -1 13.5500 -63.0076 TD 30 8 331
1860247N13298 1860 26 NA CS NOT_NAMED 1860-09-03 00:00:00 TS 13.9000 -63.2000 main 358 358 _____________O -1 13.9000 -63.2000 TD 30 8 332
1860247N13298 1860 26 NA CS NOT_NAMED 1860-09-03 03:00:00 TS 14.2575 -63.4000 main 404 404 _____________P -1 14.2575 -63.4000 TD 30 8 331
1860247N13298 1860 26 NA CS NOT_NAMED 1860-09-03 06:00:00 TS 14.6000 -63.6000 main 440 407 _____________O -1 14.6000 -63.6000 TD 30 7 329
1860247N13298 1860 26 NA CS NOT_NAMED 1860-09-03 09:00:00 TS 14.8850 -63.7927 main 407 367 _____________P -1 14.8850 -63.7927 TD 30 7 327
1860247N13298 1860 26 NA CS NOT_NAMED 1860-09-03 12:00:00 TS 15.2000 -64.0000 main 367 318 _____________O -1 15.2000 -64.0000 TD 30 9 330
1860247N13298 1860 26 NA CS NOT_NAMED 1860-09-03 15:00:00 TS 15.6350 -64.2425 main 318 253 _____________P -1 15.6350 -64.2425 TD 30 10 332
1860247N13298 1860 26 NA CS NOT_NAMED 1860-09-03 18:00:00 TS 16.1000 -64.5000 main 253 204 _____________O -1 16.1000 -64.5000 TD 30 10 331
1860247N13298 1860 26 NA CS NOT_NAMED 1860-09-03 21:00:00 TS 16.5075 -64.7501 main 198 149 _____________P -1 16.5075 -64.7501 TD 30 9 329
1860247N13298 1860 26 NA CS NOT_NAMED 1860-09-04 00:00:00 TS 16.9000 -65.0000 main 149 100 _____________O -1 16.9000 -65.0000 TD 30 9 329
1860247N13298 1860 26 NA CS NOT_NAMED 1860-09-04 03:00:00 TS 17.3000 -65.2501 main 94 46 _____________P -1 17.3000 -65.2501 TD 30 9 329
1860247N13298 1860 26 NA CS NOT_NAMED 1860-09-04 06:00:00 TS 17.7000 -65.5000 main 46 10 _____________O -1 17.7000 -65.5000 TD 30 9 329
1860247N13298 1860 26 NA CS NOT_NAMED 1860-09-04 09:00:00 TS 18.1075 -65.7501 main 0 0 _____________P -1 18.1075 -65.7501 TD 30 9 329
1860247N13298 1860 26 NA NA NOT_NAMED 1860-09-04 12:00:00 TS 18.5000 -66.0000 main 11 11 _____________O -1 18.5000 -66.0000 TD 30 9 328
1860247N13298 1860 26 NA NA NOT_NAMED 1860-09-04 15:00:00 TS 18.8650 -66.2576 main 55 55 _____________P -1 18.8650 -66.2576 TD 30 8 326
1860247N13298 1860 26 NA NA NOT_NAMED 1860-09-04 18:00:00 TS 19.2000 -66.5000 main 89 89 _____________O -1 19.2000 -66.5000 TD 30 8 327
1860247N13298 1860 26 NA NA NOT_NAMED 1860-09-04 21:00:00 TS 19.5074 -66.7002 main 123 123 _____________P -1 19.5074 -66.7002 TD 30 7 328
1860247N13298 1860 26 NA NA NOT_NAMED 1860-09-05 00:00:00 TS 19.8000 -66.9000 main 156 156 _____________O -1 19.8000 -66.9000 TD 30 7 325
1860247N13298 1860 26 NA NA NOT_NAMED 1860-09-05 03:00:00 TS 20.1000 -67.1500 main 190 190 _____________P -1 20.1000 -67.1500 TD 30 8 322
1860247N13298 1860 26 NA NA NOT_NAMED 1860-09-05 06:00:00 TS 20.4000 -67.4000 main 218 218 _____________O -1 20.4000 -67.4000 TD 30 8 323
1860247N13298 1860 26 NA NA NOT_NAMED 1860-09-05 09:00:00 TS 20.7000 -67.6300 main 236 229 _____________P -1 20.7000 -67.6300 TD 30 7 328
1860247N13298 1860 26 NA NA NOT_NAMED 1860-09-05 12:00:00 TS 21.0000 -67.8000 main 246 246 _____________O -1 21.0000 -67.8000 TD 30 7 339
1860247N13298 1860 26 NA NA NOT_NAMED 1860-09-05 15:00:00 TS 21.3075 -67.8727 main 267 267 _____________P -1 21.3075 -67.8727 TD 30 6 351
1860247N13298 1860 26 NA NA NOT_NAMED 1860-09-05 18:00:00 TS 21.6000 -67.9000 main 295 295 _____________O -1 21.6000 -67.9000 TD 30 6 353
1860247N13298 1860 26 NA NA NOT_NAMED 1860-09-05 21:00:00 TS 21.8500 -67.9500 main 320 310 _____________P -1 21.8500 -67.9500 TD 30 5 349
1860247N13298 1860 26 NA NA NOT_NAMED 1860-09-06 00:00:00 TS 22.1000 -68.0000 main 341 341 _____________O -1 22.1000 -68.0000 TD 30 6 351
1860247N13298 1860 26 NA NA NOT_NAMED 1860-09-06 03:00:00 TS 22.4000 -68.0500 main 372 368 _____________P -1 22.4000 -68.0500 TD 30 6 352
1860247N13298 1860 26 NA NA NOT_NAMED 1860-09-06 06:00:00 TS 22.7000 -68.1000 main 398 398 _____________O -1 22.7000 -68.1000 TD 30 6 348
1860247N13298 1860 26 NA NA NOT_NAMED 1860-09-06 09:00:00 TS 22.9575 -68.1799 main 423 423 _____________P -1 22.9575 -68.1799 TD 32 5 350
1860247N13298 1860 26 NA NA NOT_NAMED 1860-09-06 12:00:00 TS 23.2000 -68.2000 main 443 443 _____________O -1 23.2000 -68.2000 TS 35 5 10
1860247N13298 1860 26 NA NA NOT_NAMED 1860-09-06 15:00:00 TS 23.4575 -68.0801 main 478 478 _____________P -1 23.4575 -68.0801 TS 35 6 29
1860247N13298 1860 26 NA NA NOT_NAMED 1860-09-06 18:00:00 TS 23.7000 -67.9000 main 507 507 _____________O -1 23.7000 -67.9000 TS 35 5 34
1860247N13298 1860 26 NA NA NOT_NAMED 1860-09-06 21:00:00 TS 23.9075 -67.7499 main 536 536 _____________P -1 23.9075 -67.7499 TS 35 5 34
1860247N13298 1860 26 NA NA NOT_NAMED 1860-09-07 00:00:00 TS 24.1000 -67.6000 main 560 560 _____________O -1 24.1000 -67.6000 TS 35 5 36
1860247N13298 1860 26 NA NA NOT_NAMED 1860-09-07 03:00:00 TS 24.2925 -67.4499 main 589 589 _____________P -1 24.2925 -67.4499 TS 35 5 34
1860247N13298 1860 26 NA NA NOT_NAMED 1860-09-07 06:00:00 TS 24.5000 -67.3000 main 614 614 _____________O -1 24.5000 -67.3000 TS 35 5 29
1860247N13298 1860 26 NA NA NOT_NAMED 1860-09-07 09:00:00 TS 24.7424 -67.1798 main 638 638 _____________P -1 24.7424 -67.1798 TS 37 6 29
1860247N13298 1860 26 NA NA NOT_NAMED 1860-09-07 12:00:00 TS 25.0000 -67.0000 main 677 677 _____________O -1 25.0000 -67.0000 TS 40 7 42
1860247N13298 1860 26 NA NA NOT_NAMED 1860-09-07 15:00:00 TS 25.2576 -66.6726 main 721 721 _____________P -1 25.2576 -66.6726 TS 40 8 52
1860247N13298 1860 26 NA NA NOT_NAMED 1860-09-07 18:00:00 TS 25.5000 -66.3000 main 758 758 _____________O -1 25.5000 -66.3000 TS 40 8 54
1860247N13298 1860 26 NA NA NOT_NAMED 1860-09-07 21:00:00 TS 25.6999 -65.9922 main 791 791 _____________P -1 25.6999 -65.9922 TS 40 7 54
1860247N13298 1860 26 NA NA NOT_NAMED 1860-09-08 00:00:00 TS 25.9000 -65.7000 main 824 824 _____________O -1 25.9000 -65.7000 TS 40 7 50
1860247N13298 1860 26 NA NA NOT_NAMED 1860-09-08 03:00:00 TS 26.1499 -65.4000 main 858 858 _____________P -1 26.1499 -65.4000 TS 40 7 47
1860247N13298 1860 26 NA NA NOT_NAMED 1860-09-08 06:00:00 TS 26.4000 -65.1000 main 895 895 _____________O -1 26.4000 -65.1000 TS 40 7 50
1860247N13298 1860 26 NA NA NOT_NAMED 1860-09-08 09:00:00 TS 26.5772 -64.8293 main 920 920 _____________P -1 26.5772 -64.8293 TS 42 7 53
1860247N13298 1860 26 NA NA NOT_NAMED 1860-09-08 12:00:00 TS 26.8000 -64.5000 main 945 945 _____________O -1 26.8000 -64.5000 TS 45 9 51
1860247N13298 1860 26 NA NA NOT_NAMED 1860-09-08 15:00:00 TS 27.1626 -64.0301 main 997 997 _____________P -1 27.1626 -64.0301 TS 45 12 48
1860247N13298 1860 26 NA NA NOT_NAMED 1860-09-08 18:00:00 TS 27.6000 -63.5000 main 1050 1050 _____________O -1 27.6000 -63.5000 TS 45 13 46
1860247N13298 1860 26 NA NA NOT_NAMED 1860-09-08 21:00:00 TS 28.0423 -62.9997 main 1105 1105 _____________P -1 28.0423 -62.9997 TS 45 13 44
1860247N13298 1860 26 NA NA NOT_NAMED 1860-09-09 00:00:00 TS 28.5000 -62.5000 main 1172 1172 _____________O -1 28.5000 -62.5000 TS 45 13 44
1860247N13298 1860 26 NA NA NOT_NAMED 1860-09-09 03:00:00 TS 28.9573 -61.9997 main 1239 1239 _____________P -1 28.9573 -61.9997 TS 45 13 44
1860247N13298 1860 26 NA NA NOT_NAMED 1860-09-09 06:00:00 TS 29.4000 -61.5000 main 1297 1297 _____________O -1 29.4000 -61.5000 TS 45 12 46
1860247N13298 1860 26 NA NA NOT_NAMED 1860-09-09 09:00:00 TS 29.7845 -61.0213 main 1356 1356 _____________P -1 29.7845 -61.0213 TS 47 12 47
1860247N13298 1860 26 NA NA NOT_NAMED 1860-09-09 12:00:00 TS 30.2000 -60.5000 main 1415 1415 _____________O -1 30.2000 -60.5000 TS 50 14 47
1860247N13298 1860 26 NA NA NOT_NAMED 1860-09-09 15:00:00 TS 30.7200 -59.8723 main 1489 1460 _____________P -1 30.7200 -59.8723 TS 50 16 45
1860247N13298 1860 26 NA NA NOT_NAMED 1860-09-09 18:00:00 TS 31.3000 -59.2000 main 1460 1418 _____________O -1 31.3000 -59.2000 TS 50 16 44
1860247N13298 1860 26 NA NA NOT_NAMED 1860-09-09 21:00:00 TS 31.8921 -58.5567 main 1418 1383 _____________P -1 31.8921 -58.5567 TS 50 16 43
1860247N13298 1860 26 NA NA NOT_NAMED 1860-09-10 00:00:00 TS 32.5000 -57.9000 main 1383 1354 _____________O -1 32.5000 -57.9000 TS 50 17 43
1860247N13298 1860 26 NA NA NOT_NAMED 1860-09-10 03:00:00 TS 33.1073 -57.1995 main 1354 1329 _____________P -1 33.1073 -57.1995 TS 50 17 44
1860247N13298 1860 26 NA NA NOT_NAMED 1860-09-10 06:00:00 TS 33.7000 -56.5000 main 1329 1301 _____________O -1 33.7000 -56.5000 TS 50 16 45
1860247N13298 1860 26 NA NA NOT_NAMED 1860-09-10 09:00:00 TS 34.2423 -55.8263 main 1304 1260 _____________P -1 34.2423 -55.8263 TS 50 15 44
1860247N13298 1860 26 NA NA NOT_NAMED 1860-09-10 12:00:00 TS 34.8000 -55.2000 main 1260 1216 _____________O -1 34.8000 -55.2000 TS 50 15 40
1860247N13298 1860 26 NA NA NOT_NAMED 1860-09-10 15:00:00 TS 35.4346 -54.6268 main 1220 1168 _____________P -1 35.4346 -54.6268 TS 50 16 35
1860247N13298 1860 26 NA NA NOT_NAMED 1860-09-10 18:00:00 TS 36.1000 -54.1000 main 1168 1101 _____________O -1 36.1000 -54.1000 TS 50 16 32
1860247N13298 1860 26 NA NA NOT_NAMED 1860-09-10 21:00:00 TS 36.7496 -53.5988 main 1101 1023 _____________P -1 36.7496 -53.5988 TS 50 15 32
1860247N13298 1860 26 NA NA NOT_NAMED 1860-09-11 00:00:00 TS 37.4000 -53.1000 main 1023 957 _____________O -1 37.4000 -53.1000 TS 50 15 33
1860247N13298 1860 26 NA NA NOT_NAMED 1860-09-11 03:00:00 TS 38.0499 -52.5494 main 958 883 _____________P -1 38.0499 -52.5494 TS 50 16 34
1860247N13298 1860 26 NA NA NOT_NAMED 1860-09-11 06:00:00 TS 38.7000 -52.0000 main 883 821 _____________O -1 38.7000 -52.0000 TS 50 15 31
1860247N13298 1860 26 NA NA NOT_NAMED 1860-09-11 09:00:00 TS 39.3412 -51.5494 main 823 754 _____________P -1 39.3412 -51.5494 TS 50 15 31
1860247N13298 1860 26 NA NA NOT_NAMED 1860-09-11 12:00:00 TS 40.0000 -51.0000 main 754 698 _____________O -1 40.0000 -51.0000 TS 50 17 38
1860247N13298 1860 26 NA NA NOT_NAMED 1860-09-11 15:00:00 TS 40.7003 -50.1677 main 698 656 _____________P -1 40.7003 -50.1677 TS 50 20 44
1860247N13298 1860 26 NA NA NOT_NAMED 1860-09-11 18:00:00 TS 41.4000 -49.2000 main 659 637 _____________O -1 41.4000 -49.2000 TS 50 20 47
1860247N13298 1860 26 NA NA NOT_NAMED 1860-09-11 21:00:00 TS 42.0571 -48.2482 main 637 629 _____________P -1 42.0571 -48.2482 TS 50 19 47
1860247N13298 1860 26 NA NA NOT_NAMED 1860-09-12 00:00:00 TS 42.7000 -47.3000 main 635 633 _____________O -1 42.7000 -47.3000 TS 50 19 47
1860247N13298 1860 26 NA NA NOT_NAMED 1860-09-12 03:00:00 TS 43.3491 -46.3904 main 646 644 _____________P -1 43.3491 -46.3904 TS 50 18 45
1860247N13298 1860 26 NA NA NOT_NAMED 1860-09-12 06:00:00 TS 44.0000 -45.5000 main 660 660 _____________O -1 44.0000 -45.5000 TS 50 18 45
1860247N13298 1860 26 NA NA NOT_NAMED 1860-09-12 09:00:00 TS 44.6496 -44.5835 main 693 693 _____________P -1 44.6496 -44.5835 TS 50 18 45
1860247N13298 1860 26 NA NA NOT_NAMED 1860-09-12 12:00:00 TS 45.3000 -43.7000 main 721 721 _____________O -1 45.3000 -43.7000 TS 50 18 43
1860247N13298 1860 26 NA NA NOT_NAMED 1860-09-12 15:00:00 TS 45.9491 -42.8826 main 757 757 _____________P -1 45.9491 -42.8826 TS 50 17 41
1860247N13298 1860 26 NA NA NOT_NAMED 1860-09-12 18:00:00 TS 46.6000 -42.1000 main 797 797 _____________O -1 46.6000 -42.1000 TS 50 17 40
1860247N13298 1860 26 NA NA NOT_NAMED 1860-09-12 21:00:00 TS 47.2513 -41.3092 main 846 846 _____________P -1 47.2513 -41.3092 TS 47 17 40
1860247N13298 1860 26 NA NA NOT_NAMED 1860-09-13 00:00:00 TS 47.9000 -40.5000 main 901 _____________O -1 47.9000 -40.5000 TS 45 17 40

About IBTrACS Database

This database is a web-friendly format of International Best Track Archive for Climate Stewardship (IBTrACS), a global best track data archive curated by NOAA dating back to 1842.

Updated: 2021-12-06